Time;durP1;ratioP1;P1;durP2;ratioP2;P2;SDS_P1;SDS_P2;PMS_P1;PMS_P2;Temp;Humidity;BMP_temperature;BMP_pressure;BME280_temperature;BME280_humidity;BME280_pressure;Samples;Min_cycle;Max_cycle;Signal;HPM_P1;HPM_P2
2024/01/25 00:02:17;;;;;;;62.10;8.38;;;;;;;7.66;100.00;102452.47;5001470;28;20558;-77
2024/01/25 00:04:43;;;;;;;58.60;7.68;;;;;;;7.60;100.00;102461.44;5021711;28;20052;-78
2024/01/25 00:07:09;;;;;;;48.30;6.60;;;;;;;7.61;100.00;102454.53;5016595;28;20042;-77
2024/01/25 00:09:35;;;;;;;45.72;6.97;;;;;;;7.54;100.00;102463.59;5003338;28;20407;-77
2024/01/25 00:12:00;;;;;;;54.15;8.30;;;;;;;7.51;100.00;102474.09;5030148;28;20030;-78
2024/01/25 00:14:26;;;;;;;64.97;8.95;;;;;;;7.60;100.00;102471.75;5022610;28;20042;-78
2024/01/25 00:16:51;;;;;;;55.65;6.72;;;;;;;7.58;100.00;102463.28;5030447;28;20036;-77
2024/01/25 00:19:17;;;;;;;43.38;6.53;;;;;;;7.61;100.00;102464.84;5014059;28;20044;-77
2024/01/25 00:21:43;;;;;;;56.85;6.75;;;;;;;7.57;100.00;102464.22;4992897;28;20041;-77
2024/01/25 00:24:12;;;;;;;51.90;8.25;;;;;;;7.54;100.00;102472.16;5004081;28;20121;-77
2024/01/25 00:26:37;;;;;;;59.65;7.32;;;;;;;7.49;100.00;102466.44;5024525;28;20215;-77
2024/01/25 00:29:02;;;;;;;55.85;6.70;;;;;;;7.45;100.00;102467.53;5010635;28;20454;-77
2024/01/25 00:31:28;;;;;;;53.15;8.30;;;;;;;7.53;100.00;102464.50;5016190;28;20037;-77
2024/01/25 00:33:53;;;;;;;65.38;8.85;;;;;;;7.56;100.00;102456.56;5033008;28;20029;-77
2024/01/25 00:36:20;;;;;;;59.90;6.32;;;;;;;7.42;100.00;102457.41;5012279;28;20117;-77
2024/01/25 00:38:45;;;;;;;56.88;6.78;;;;;;;7.41;100.00;102466.09;5021740;28;20040;-76
2024/01/25 00:41:17;;;;;;;51.33;6.00;;;;;;;7.41;100.00;102479.00;5021676;28;20038;-77
2024/01/25 00:43:42;;;;;;;44.20;6.40;;;;;;;7.46;100.00;102469.22;5017780;28;20388;-77
2024/01/25 00:46:08;;;;;;;57.72;7.35;;;;;;;7.36;100.00;102468.94;4996621;28;20554;-77
2024/01/25 00:48:34;;;;;;;57.80;6.60;;;;;;;7.40;100.00;102482.47;5026812;28;20032;-77
2024/01/25 00:51:00;;;;;;;63.83;8.57;;;;;;;7.32;100.00;102479.56;4992931;28;20030;-77
2024/01/25 00:53:26;;;;;;;50.05;6.00;;;;;;;7.34;100.00;102473.34;5019018;28;20025;-76
2024/01/25 00:55:51;;;;;;;52.13;7.45;;;;;;;7.30;100.00;102471.91;5031353;28;20459;-77
2024/01/25 00:58:17;;;;;;;57.10;7.40;;;;;;;7.28;100.00;102473.75;4999645;28;20029;-76
2024/01/25 01:00:43;;;;;;;58.53;6.82;;;;;;;7.22;100.00;102484.44;5023202;28;20064;-77
2024/01/25 01:03:09;;;;;;;47.50;6.40;;;;;;;7.16;100.00;102484.81;5027086;28;20025;-77
2024/01/25 01:05:35;;;;;;;43.22;5.47;;;;;;;7.14;100.00;102482.34;5005941;28;20049;-77
2024/01/25 01:08:01;;;;;;;52.55;7.75;;;;;;;7.11;100.00;102466.22;4987470;28;20029;-77
2024/01/25 01:10:26;;;;;;;58.00;7.32;;;;;;;7.07;100.00;102470.72;5018845;28;20037;-77
2024/01/25 01:12:53;;;;;;;57.25;6.78;;;;;;;7.06;100.00;102465.66;5000906;28;20049;-76
2024/01/25 01:15:19;;;;;;;55.40;8.20;;;;;;;7.06;100.00;102470.81;4999592;28;20045;-77
2024/01/25 01:17:44;;;;;;;60.45;8.07;;;;;;;6.92;100.00;102475.03;5027298;28;20199;-77
2024/01/25 01:20:10;;;;;;;57.65;7.75;;;;;;;6.90;100.00;102474.31;5000855;28;20046;-76
2024/01/25 01:22:35;;;;;;;62.03;9.02;;;;;;;6.96;100.00;102466.19;5002266;28;20034;-76
2024/01/25 01:25:01;;;;;;;51.75;7.40;;;;;;;6.93;100.00;102474.13;5019408;28;20048;-76
2024/01/25 01:27:26;;;;;;;51.72;7.38;;;;;;;6.87;100.00;102487.38;5003301;28;20479;-77
2024/01/25 01:29:52;;;;;;;48.22;7.38;;;;;;;6.80;100.00;102491.25;5022891;28;20049;-77
2024/01/25 01:32:17;;;;;;;60.67;9.25;;;;;;;6.76;100.00;102484.59;5027791;28;20029;-77
2024/01/25 01:34:42;;;;;;;56.05;7.07;;;;;;;6.71;100.00;102478.91;4987749;28;20042;-77
2024/01/25 01:37:08;;;;;;;52.40;5.90;;;;;;;6.68;100.00;102482.47;5030219;28;20411;-77
2024/01/25 01:39:33;;;;;;;51.70;6.80;;;;;;;6.73;100.00;102490.78;5028326;28;20045;-78
2024/01/25 01:41:59;;;;;;;58.78;7.65;;;;;;;6.61;100.00;102484.59;5030743;28;20026;-77
2024/01/25 01:44:24;;;;;;;42.97;6.40;;;;;;;6.54;100.00;102482.47;5000874;28;20437;-76
2024/01/25 01:46:50;;;;;;;59.55;7.32;;;;;;;6.63;100.00;102492.25;4993980;28;20045;-77
2024/01/25 01:49:16;;;;;;;48.17;5.68;;;;;;;6.58;100.00;102501.97;5012753;28;22324;-77
2024/01/25 01:51:43;;;;;;;58.65;7.47;;;;;;;6.55;100.00;102492.66;4994818;28;20033;-77
2024/01/25 01:54:09;;;;;;;45.03;7.03;;;;;;;6.50;100.00;102496.41;5021297;28;20044;-77
2024/01/25 01:56:35;;;;;;;60.00;7.05;;;;;;;6.63;100.00;102505.13;4994352;28;20024;-76
2024/01/25 01:59:05;;;;;;;51.47;6.32;;;;;;;6.53;100.00;102512.53;4996878;28;20420;-76
2024/01/25 02:01:31;;;;;;;58.72;8.90;;;;;;;6.55;100.00;102515.03;4999297;28;20485;-77
2024/01/25 02:03:57;;;;;;;58.75;6.85;;;;;;;6.60;100.00;102506.13;5010536;28;20663;-77
2024/01/25 02:06:26;;;;;;;59.70;8.27;;;;;;;6.56;100.00;102509.78;5026764;28;20025;-77
2024/01/25 02:08:53;;;;;;;44.85;6.70;;;;;;;6.54;100.00;102511.63;5012194;28;20559;-77
2024/01/25 02:11:19;;;;;;;51.15;7.53;;;;;;;6.55;100.00;102509.88;5024192;28;20025;-77
2024/01/25 02:13:44;;;;;;;63.08;8.25;;;;;;;6.46;100.00;102512.97;5022628;28;20092;-77
2024/01/25 02:16:10;;;;;;;61.22;7.60;;;;;;;6.44;100.00;102510.47;4988839;28;20049;-76
2024/01/25 02:18:36;;;;;;;56.13;7.55;;;;;;;6.51;100.00;102526.44;5008321;28;20024;-77
2024/01/25 02:21:01;;;;;;;51.10;8.45;;;;;;;6.42;100.00;102520.91;5024303;28;20041;-77
2024/01/25 02:23:27;;;;;;;61.58;7.32;;;;;;;6.40;100.00;102519.31;5003015;28;20103;-77
2024/01/25 02:25:53;;;;;;;45.17;7.53;;;;;;;6.35;100.00;102526.47;5022553;28;20280;-77
2024/01/25 02:28:18;;;;;;;59.30;7.35;;;;;;;6.28;100.00;102525.16;4991221;28;20030;-77
2024/01/25 02:30:44;;;;;;;47.72;7.78;;;;;;;6.19;100.00;102529.06;5023777;28;20645;-77
2024/01/25 02:33:09;;;;;;;58.13;7.60;;;;;;;6.23;100.00;102531.41;4991217;28;20633;-77
2024/01/25 02:35:35;;;;;;;60.50;7.93;;;;;;;6.18;100.00;102548.84;4988094;28;20463;-77
2024/01/25 02:38:00;;;;;;;68.75;7.60;;;;;;;6.26;100.00;102556.16;5009264;28;21276;-77
2024/01/25 02:40:26;;;;;;;65.45;9.75;;;;;;;6.24;100.00;102561.38;5005705;28;20493;-77
2024/01/25 02:42:51;;;;;;;52.08;7.25;;;;;;;6.19;100.00;102555.66;5023152;28;20057;-77
2024/01/25 02:45:17;;;;;;;61.08;7.70;;;;;;;6.16;100.00;102565.28;5007996;28;20455;-77
2024/01/25 02:47:42;;;;;;;57.65;8.00;;;;;;;6.21;100.00;102565.88;4991890;28;20029;-76
2024/01/25 02:50:08;;;;;;;46.55;6.72;;;;;;;6.16;100.00;102566.16;5009994;28;20368;-77
2024/01/25 02:52:34;;;;;;;56.10;6.53;;;;;;;6.08;100.00;102570.03;4995317;28;20040;-77
2024/01/25 02:54:59;;;;;;;48.42;6.05;;;;;;;6.10;100.00;102579.34;5027439;28;20029;-76
2024/01/25 02:57:25;;;;;;;56.10;8.18;;;;;;;6.07;100.00;102571.78;5007043;28;20186;-76
2024/01/25 02:59:51;;;;;;;62.47;7.65;;;;;;;6.11;100.00;102572.47;5025354;28;20041;-77
2024/01/25 03:02:19;;;;;;;58.00;8.85;;;;;;;6.26;100.00;102561.31;5022013;28;20042;-77
2024/01/25 03:04:45;;;;;;;54.67;7.15;;;;;;;6.21;100.00;102569.28;4991860;28;20037;-77
2024/01/25 03:07:10;;;;;;;60.83;6.78;;;;;;;6.16;100.00;102565.28;5003066;28;20065;-77
2024/01/25 03:09:35;;;;;;;58.58;7.50;;;;;;;6.14;100.00;102561.97;5029470;28;20041;-77
2024/01/25 03:12:01;;;;;;;58.75;6.78;;;;;;;6.07;100.00;102565.81;4998214;28;20025;-77
2024/01/25 03:14:27;;;;;;;51.67;7.97;;;;;;;5.97;100.00;102571.47;5027629;28;20038;-77
2024/01/25 03:16:52;;;;;;;66.57;8.98;;;;;;;5.93;100.00;102563.94;5012215;28;20072;-77
2024/01/25 03:19:18;;;;;;;51.08;7.53;;;;;;;5.87;100.00;102562.53;4999350;28;20045;-77
2024/01/25 03:21:43;;;;;;;55.47;7.28;;;;;;;5.87;100.00;102561.69;4992621;28;20058;-76
2024/01/25 03:24:09;;;;;;;45.33;7.07;;;;;;;5.89;100.00;102568.41;4996134;28;20032;-77
2024/01/25 03:26:34;;;;;;;65.35;8.77;;;;;;;5.78;100.00;102560.44;5010822;28;20048;-77
2024/01/25 03:29:00;;;;;;;45.30;7.00;;;;;;;5.74;100.00;102564.09;5013119;28;20017;-77
2024/01/25 03:31:25;;;;;;;63.58;6.78;;;;;;;5.75;100.00;102556.28;5017287;28;20029;-78
2024/01/25 03:33:51;;;;;;;56.45;6.85;;;;;;;5.71;100.00;102569.38;5012148;28;20048;-77
2024/01/25 03:36:16;;;;;;;59.47;7.30;;;;;;;5.72;100.00;102566.75;5012189;28;20025;-77
2024/01/25 03:38:43;;;;;;;59.75;7.45;;;;;;;5.65;100.00;102571.41;5031225;28;20590;-77
2024/01/25 03:41:09;;;;;;;62.13;6.78;;;;;;;5.64;100.00;102569.72;5015234;28;20079;-77
2024/01/25 03:43:35;;;;;;;52.80;6.68;;;;;;;5.62;100.00;102571.53;5032562;28;20033;-77
2024/01/25 03:46:00;;;;;;;58.50;7.35;;;;;;;5.61;100.00;102567.34;5029721;28;20091;-76
2024/01/25 03:48:26;;;;;;;36.65;6.45;;;;;;;5.64;100.00;102558.59;5010665;28;20101;-76
2024/01/25 03:50:56;;;;;;;60.97;7.90;;;;;;;5.68;100.00;102562.69;5013777;28;20088;-77
2024/01/25 03:53:24;;;;;;;68.30;7.05;;;;;;;5.75;100.00;102556.28;5029487;28;20040;-77
2024/01/25 03:55:49;;;;;;;75.47;10.00;;;;;;;5.73;100.00;102557.31;5027217;28;20076;-77
2024/01/25 03:58:18;;;;;;;71.65;7.47;;;;;;;5.72;100.00;102553.06;5027584;28;20029;-77
2024/01/25 04:00:43;;;;;;;59.38;8.40;;;;;;;5.78;100.00;102555.28;4994446;28;20069;-77
2024/01/25 04:03:10;;;;;;;62.33;8.35;;;;;;;5.77;100.00;102561.38;5013439;28;20458;-77
2024/01/25 04:05:36;;;;;;;68.50;7.63;;;;;;;5.76;100.00;102557.13;5027397;28;20486;-77
2024/01/25 04:08:02;;;;;;;65.88;8.55;;;;;;;5.71;100.00;102559.09;5032280;28;20125;-77
2024/01/25 04:10:27;;;;;;;56.33;7.65;;;;;;;5.64;100.00;102556.84;5015401;28;20409;-78
2024/01/25 04:12:53;;;;;;;54.22;8.43;;;;;;;5.61;100.00;102564.75;5019464;28;20060;-77
2024/01/25 04:15:18;;;;;;;57.97;8.50;;;;;;;5.49;100.00;102567.13;5015475;28;20034;-76
2024/01/25 04:17:44;;;;;;;51.60;7.05;;;;;;;5.45;100.00;102564.72;4998228;28;20491;-77
2024/01/25 04:20:10;;;;;;;60.60;7.35;;;;;;;5.41;100.00;102568.34;4999143;28;20042;-77
2024/01/25 04:22:38;;;;;;;68.38;9.20;;;;;;;5.54;100.00;102568.56;5032797;28;20034;-77
2024/01/25 04:25:04;;;;;;;54.00;7.47;;;;;;;5.57;100.00;102573.53;5021747;28;20044;-77
2024/01/25 04:27:30;;;;;;;73.65;8.15;;;;;;;5.48;100.00;102574.00;5033074;28;20037;-77
2024/01/25 04:29:55;;;;;;;56.88;7.53;;;;;;;5.52;100.00;102577.25;4996919;28;20037;-77
2024/01/25 04:32:21;;;;;;;54.03;7.38;;;;;;;5.39;100.00;102567.59;5000249;28;20033;-77
2024/01/25 04:34:47;;;;;;;57.15;9.50;;;;;;;5.33;100.00;102573.06;5034957;28;20040;-76
2024/01/25 04:37:13;;;;;;;68.85;10.32;;;;;;;5.27;100.00;102573.38;5016152;28;20431;-77
2024/01/25 04:39:39;;;;;;;61.20;8.45;;;;;;;5.25;100.00;102577.75;5016166;28;20038;-77
2024/01/25 04:42:04;;;;;;;52.08;7.93;;;;;;;5.28;100.00;102579.34;5015876;28;20574;-77
2024/01/25 04:44:30;;;;;;;60.50;9.13;;;;;;;5.32;100.00;102576.53;5018696;28;20083;-77
2024/01/25 04:46:56;;;;;;;58.65;6.55;;;;;;;5.33;100.00;102579.94;5032768;28;20037;-77
2024/01/25 04:49:21;;;;;;;64.10;7.82;;;;;;;5.27;100.00;102581.06;5015812;28;20041;-77
2024/01/25 04:51:47;;;;;;;55.75;9.50;;;;;;;5.27;100.00;102575.94;5034760;28;20030;-76
2024/01/25 04:54:15;;;;;;;57.92;7.25;;;;;;;5.16;100.00;102583.38;5016383;28;22839;-76
2024/01/25 04:56:43;;;;;;;51.67;7.90;;;;;;;5.17;100.00;102582.47;5018513;28;20499;-77
2024/01/25 04:59:09;;;;;;;62.72;7.47;;;;;;;5.12;100.00;102589.56;5009856;28;20496;-77
2024/01/25 05:01:34;;;;;;;67.72;8.13;;;;;;;5.17;100.00;102596.16;5017198;28;20027;-76
2024/01/25 05:04:00;;;;;;;54.30;6.57;;;;;;;5.01;100.00;102595.25;4999428;28;20083;-77
2024/01/25 05:06:25;;;;;;;64.15;7.18;;;;;;;5.04;100.00;102595.91;5033460;28;20032;-77
2024/01/25 05:08:51;;;;;;;55.35;7.40;;;;;;;4.97;100.00;102596.31;5012447;28;20041;-77
2024/01/25 05:11:16;;;;;;;65.45;6.30;;;;;;;4.88;100.00;102589.91;5017905;28;20059;-76
2024/01/25 05:13:42;;;;;;;62.38;7.25;;;;;;;4.90;100.00;102592.38;5015588;28;20037;-77
2024/01/25 05:16:07;;;;;;;57.28;7.53;;;;;;;4.85;100.00;102595.19;5018987;28;20045;-77
2024/01/25 05:18:33;;;;;;;50.83;6.35;;;;;;;4.90;100.00;102597.50;5027938;28;20037;-76
2024/01/25 05:20:58;;;;;;;52.78;7.20;;;;;;;4.78;100.00;102598.94;5013829;28;20037;-76
2024/01/25 05:23:24;;;;;;;45.72;6.63;;;;;;;4.72;100.00;102599.25;5031255;28;20040;-76
2024/01/25 05:25:50;;;;;;;44.30;7.78;;;;;;;4.70;100.00;102594.19;5036337;28;20051;-77
2024/01/25 05:28:15;;;;;;;51.90;8.32;;;;;;;4.72;100.00;102599.25;5000929;28;20042;-77
2024/01/25 05:30:40;;;;;;;49.63;6.85;;;;;;;4.66;100.00;102590.91;5032760;28;20032;-77
2024/01/25 05:33:06;;;;;;;41.53;7.43;;;;;;;4.61;100.00;102592.88;5000694;28;20025;-77
2024/01/25 05:35:34;;;;;;;43.58;5.47;;;;;;;4.59;100.00;102599.00;5013552;28;20550;-77
2024/01/25 05:37:59;;;;;;;47.85;5.97;;;;;;;4.54;100.00;102598.38;5032788;28;20089;-77
2024/01/25 05:40:25;;;;;;;37.53;5.55;;;;;;;4.49;100.00;102593.47;5027745;28;20121;-77
2024/01/25 05:42:50;;;;;;;58.90;8.93;;;;;;;4.55;100.00;102587.22;5016259;28;20463;-77
2024/01/25 05:45:17;;;;;;;45.38;8.60;;;;;;;4.45;100.00;102594.53;5032059;28;20040;-78
2024/01/25 05:47:42;;;;;;;44.30;8.27;;;;;;;4.40;100.00;102587.00;5000678;28;20115;-76
2024/01/25 05:50:08;;;;;;;52.17;8.18;;;;;;;4.36;100.00;102594.94;4998244;28;20507;-77
2024/01/25 05:52:36;;;;;;;43.42;7.05;;;;;;;4.32;100.00;102590.88;4998649;28;20402;-77
2024/01/25 05:55:02;;;;;;;45.63;6.43;;;;;;;4.31;100.00;102594.31;4999243;28;20060;-77
2024/01/25 05:57:27;;;;;;;35.75;7.65;;;;;;;4.26;100.00;102603.06;5012582;28;20041;-77
2024/01/25 05:59:53;;;;;;;41.45;6.57;;;;;;;4.22;100.00;102599.00;5017530;28;20037;-76
2024/01/25 06:02:18;;;;;;;36.35;6.65;;;;;;;4.13;100.00;102594.28;5015062;28;20041;-77
2024/01/25 06:04:44;;;;;;;39.53;6.60;;;;;;;4.09;100.00;102598.72;5035032;28;20037;-77
2024/01/25 06:07:10;;;;;;;42.25;5.88;;;;;;;4.07;100.00;102597.13;5014638;28;20037;-77
2024/01/25 06:09:35;;;;;;;36.85;7.22;;;;;;;4.02;100.00;102594.75;5034510;28;20051;-78
2024/01/25 06:12:01;;;;;;;44.33;6.60;;;;;;;3.98;100.00;102600.94;5034294;28;20029;-77
2024/01/25 06:14:26;;;;;;;36.65;5.15;;;;;;;3.95;100.00;102603.63;5012688;28;20049;-77
2024/01/25 06:16:52;;;;;;;40.28;7.63;;;;;;;3.91;100.00;102602.09;5018629;28;20025;-76
2024/01/25 06:19:18;;;;;;;39.53;5.97;;;;;;;3.87;100.00;102616.81;5002151;28;20524;-77
2024/01/25 06:21:43;;;;;;;40.40;8.30;;;;;;;3.84;100.00;102611.84;5032693;28;20052;-76
2024/01/25 06:24:09;;;;;;;42.65;8.40;;;;;;;3.82;100.00;102623.03;5031688;28;20033;-77
2024/01/25 06:26:34;;;;;;;44.95;6.70;;;;;;;3.80;100.00;102624.84;4999929;28;20072;-76
2024/01/25 06:29:00;;;;;;;42.30;6.72;;;;;;;3.79;100.00;102628.34;5030437;28;20021;-77
2024/01/25 06:31:26;;;;;;;47.58;6.35;;;;;;;3.77;100.00;102628.38;4997305;28;20033;-76
2024/01/25 06:33:52;;;;;;;48.25;8.00;;;;;;;3.74;100.00;102633.66;5031374;28;20044;-77
2024/01/25 06:36:21;;;;;;;51.13;9.00;;;;;;;3.73;100.00;102626.00;5016418;28;20053;-76
2024/01/25 06:38:46;;;;;;;42.58;6.70;;;;;;;3.71;100.00;102636.34;5030347;28;20063;-77
2024/01/25 06:41:12;;;;;;;58.35;7.80;;;;;;;3.69;100.00;102636.44;5032796;28;20037;-76
2024/01/25 06:43:39;;;;;;;36.42;6.18;;;;;;;3.68;100.00;102634.75;5010483;28;20025;-76
2024/01/25 06:46:06;;;;;;;44.17;6.72;;;;;;;3.69;100.00;102640.69;5017490;28;20033;-77
2024/01/25 06:48:31;;;;;;;39.10;8.48;;;;;;;3.63;100.00;102640.97;5033714;28;20514;-78
2024/01/25 06:50:56;;;;;;;55.25;6.85;;;;;;;3.57;100.00;102639.50;5002513;28;20022;-77
2024/01/25 06:53:22;;;;;;;37.00;6.47;;;;;;;3.53;100.00;102658.50;5031743;28;20566;-76
2024/01/25 06:55:48;;;;;;;46.55;7.35;;;;;;;3.46;100.00;102657.91;5015792;28;20912;-77
2024/01/25 06:58:13;;;;;;;35.95;6.75;;;;;;;3.44;100.00;102649.44;5033692;28;20037;-76
2024/01/25 07:00:41;;;;;;;59.17;6.82;;;;;;;3.54;100.00;102655.00;5032949;28;20033;-76
2024/01/25 07:03:07;;;;;;;51.17;7.28;;;;;;;3.51;100.00;102650.03;5029074;28;20131;-77
2024/01/25 07:05:33;;;;;;;54.80;7.82;;;;;;;3.51;100.00;102660.28;5011154;28;20124;-77
2024/01/25 07:07:59;;;;;;;56.40;7.35;;;;;;;3.47;100.00;102669.03;5015845;28;20521;-78
2024/01/25 07:10:26;;;;;;;39.80;5.40;;;;;;;3.43;100.00;102663.19;5013461;28;20037;-76
2024/01/25 07:12:52;;;;;;;44.97;6.30;;;;;;;3.40;100.00;102655.59;5033208;28;20026;-77
2024/01/25 07:15:18;;;;;;;56.92;7.85;;;;;;;3.38;100.00;102656.56;4995961;28;20089;-77
2024/01/25 07:17:43;;;;;;;50.65;8.25;;;;;;;3.43;100.00;102658.06;5014349;28;20048;-77
2024/01/25 07:20:09;;;;;;;59.17;9.63;;;;;;;3.43;100.00;102667.50;4998589;28;20067;-77
2024/01/25 07:22:35;;;;;;;65.53;8.82;;;;;;;3.46;100.00;102664.78;5016948;28;20029;-76
2024/01/25 07:25:00;;;;;;;53.97;8.88;;;;;;;3.49;100.00;102662.09;5001508;28;20470;-77
2024/01/25 07:27:26;;;;;;;53.92;8.32;;;;;;;3.54;100.00;102665.28;5030950;28;20037;-77
2024/01/25 07:29:51;;;;;;;56.20;10.85;;;;;;;3.58;100.00;102660.84;5011688;28;20063;-75
2024/01/25 07:32:19;;;;;;;70.90;8.52;;;;;;;3.60;100.00;102664.19;5030913;28;20033;-76
2024/01/25 07:34:45;;;;;;;59.45;10.75;;;;;;;3.76;100.00;102669.50;5013594;28;20064;-78
2024/01/25 07:37:12;;;;;;;64.80;8.15;;;;;;;3.67;100.00;102671.59;5033850;28;20577;-77
2024/01/25 07:39:38;;;;;;;55.00;8.55;;;;;;;3.63;100.00;102664.88;5009351;28;20030;-78
2024/01/25 07:42:04;;;;;;;64.95;9.02;;;;;;;3.66;100.00;102659.63;5010981;28;20117;-77
2024/01/25 07:44:29;;;;;;;66.70;10.35;;;;;;;3.74;100.00;102658.47;4998074;28;20044;-76
2024/01/25 07:46:55;;;;;;;73.82;12.45;;;;;;;3.73;100.00;102665.34;5033128;28;20485;-77
2024/01/25 07:49:20;;;;;;;62.22;10.10;;;;;;;3.71;100.00;102667.13;5011362;28;20029;-76
2024/01/25 07:51:46;;;;;;;61.95;10.00;;;;;;;3.72;100.00;102673.94;5015670;28;20034;-76
2024/01/25 07:54:12;;;;;;;58.92;9.30;;;;;;;3.79;100.00;102665.09;5013069;28;20033;-76
2024/01/25 07:56:38;;;;;;;64.70;10.55;;;;;;;3.79;100.00;102670.22;4998305;28;20033;-77
2024/01/25 07:59:03;;;;;;;83.38;11.85;;;;;;;3.87;100.00;102675.84;5030956;28;20036;-77
2024/01/25 08:01:29;;;;;;;70.88;11.60;;;;;;;3.94;100.00;102676.41;4997092;28;20030;-76
2024/01/25 08:03:54;;;;;;;65.72;9.93;;;;;;;4.00;100.00;102683.84;5012923;28;20029;-77
2024/01/25 08:06:20;;;;;;;58.42;10.70;;;;;;;3.99;100.00;102689.88;4998955;28;20454;-76
2024/01/25 08:08:45;;;;;;;82.40;12.13;;;;;;;4.09;100.00;102690.31;5012895;28;20036;-77
2024/01/25 08:11:11;;;;;;;66.35;12.73;;;;;;;4.16;100.00;102683.16;5012818;28;20637;-77
2024/01/25 08:13:36;;;;;;;80.07;14.40;;;;;;;4.08;100.00;102692.03;4998622;28;20400;-77
2024/01/25 08:16:02;;;;;;;68.95;13.82;;;;;;;4.10;100.00;102685.09;5025447;28;20559;-77
2024/01/25 08:18:29;;;;;;;77.28;15.10;;;;;;;4.12;100.00;102690.16;5028996;28;20087;-77
2024/01/25 08:20:55;;;;;;;91.72;17.05;;;;;;;4.20;100.00;102698.38;4993225;28;20034;-78
2024/01/25 08:23:21;;;;;;;92.10;13.55;;;;;;;4.16;100.00;102698.56;5032716;28;20056;-77
2024/01/25 08:25:46;;;;;;;76.93;16.65;;;;;;;4.22;100.00;102708.56;5026029;28;20037;-77
2024/01/25 08:28:12;;;;;;;79.22;15.50;;;;;;;4.22;100.00;102714.56;4996443;28;20026;-77
2024/01/25 08:30:37;;;;;;;85.45;15.70;;;;;;;4.36;100.00;102703.66;5011531;28;20034;-77
2024/01/25 08:33:03;;;;;;;68.40;13.05;;;;;;;4.35;100.00;102703.72;5010642;28;20041;-77
2024/01/25 08:35:30;;;;;;;77.22;14.32;;;;;;;4.38;100.00;102708.72;5015476;28;20044;-77
2024/01/25 08:37:56;;;;;;;74.22;14.18;;;;;;;4.42;100.00;102700.81;5013932;28;20476;-77
2024/01/25 08:40:21;;;;;;;82.60;13.73;;;;;;;4.49;100.00;102696.22;4994583;28;20086;-76
2024/01/25 08:42:47;;;;;;;77.53;13.40;;;;;;;4.53;100.00;102697.75;5008635;28;20633;-78
2024/01/25 08:45:12;;;;;;;73.88;13.05;;;;;;;4.57;100.00;102696.69;5027690;28;20042;-77
2024/01/25 08:47:38;;;;;;;67.63;13.85;;;;;;;4.58;100.00;102695.81;5029042;28;20033;-77
2024/01/25 08:50:05;;;;;;;69.13;14.20;;;;;;;4.57;100.00;102698.44;5013456;28;20048;-77
2024/01/25 08:52:31;;;;;;;75.18;14.40;;;;;;;4.63;100.00;102699.00;5013219;28;20040;-77
2024/01/25 08:54:56;;;;;;;69.43;14.13;;;;;;;4.67;100.00;102697.09;5011717;28;20041;-77
2024/01/25 08:57:22;;;;;;;89.00;15.57;;;;;;;4.75;100.00;102692.47;4996708;28;20098;-77
2024/01/25 08:59:47;;;;;;;73.05;14.98;;;;;;;4.83;100.00;102692.09;5000640;28;20038;-77
2024/01/25 09:02:13;;;;;;;80.32;14.48;;;;;;;4.85;100.00;102693.69;5013496;28;20506;-77
2024/01/25 09:04:40;;;;;;;64.25;13.55;;;;;;;4.78;100.00;102689.72;5018634;28;20029;-77
2024/01/25 09:07:05;;;;;;;82.88;13.82;;;;;;;4.82;100.00;102693.00;4997236;28;20403;-76
2024/01/25 09:09:31;;;;;;;83.25;15.57;;;;;;;4.91;100.00;102690.00;5018157;28;20049;-77
2024/01/25 09:11:56;;;;;;;62.95;15.18;;;;;;;4.90;100.00;102693.47;5014794;28;20057;-77
2024/01/25 09:14:22;;;;;;;80.72;14.73;;;;;;;4.90;100.00;102697.78;5020265;28;20033;-77
2024/01/25 09:16:48;;;;;;;73.13;14.32;;;;;;;4.94;100.00;102689.84;5014601;28;20061;-78
2024/01/25 09:19:13;;;;;;;70.15;14.95;;;;;;;5.00;100.00;102679.28;5014879;28;20053;-76
2024/01/25 09:21:39;;;;;;;87.80;16.08;;;;;;;5.02;100.00;102662.03;5013361;28;20033;-78
2024/01/25 09:24:06;;;;;;;75.85;16.10;;;;;;;5.11;100.00;102662.50;5000386;28;20026;-77
2024/01/25 09:26:32;;;;;;;62.55;14.50;;;;;;;5.15;100.00;102662.28;5016702;28;20159;-77
2024/01/25 09:28:57;;;;;;;90.20;15.27;;;;;;;5.20;100.00;102673.16;5030401;28;20081;-78
2024/01/25 09:31:23;;;;;;;82.15;17.20;;;;;;;5.26;100.00;102674.59;5004177;28;20025;-77
2024/01/25 09:33:48;;;;;;;65.47;15.50;;;;;;;5.28;100.00;102685.66;5021183;28;20110;-78
2024/01/25 09:36:13;;;;;;;95.30;15.80;;;;;;;5.37;100.00;102685.19;4995883;28;20046;-77
2024/01/25 09:38:39;;;;;;;86.10;16.30;;;;;;;5.37;100.00;102682.63;4997840;28;20107;-77
2024/01/25 09:41:04;;;;;;;73.90;14.88;;;;;;;5.44;100.00;102689.13;4998965;28;20038;-76
2024/01/25 09:43:30;;;;;;;76.05;16.23;;;;;;;5.42;100.00;102690.09;5033429;28;20075;-77
2024/01/25 09:45:56;;;;;;;69.53;14.85;;;;;;;5.46;100.00;102691.63;5015064;28;20122;-77
2024/01/25 09:48:21;;;;;;;82.35;15.75;;;;;;;5.47;100.00;102690.72;5006847;28;20113;-77
2024/01/25 09:50:48;;;;;;;74.63;15.73;;;;;;;5.59;100.00;102694.41;5031340;28;20036;-77
2024/01/25 09:53:24;;;;;;;67.97;13.88;;;;;;;5.61;100.00;102703.75;5028970;28;20042;-78
2024/01/25 09:56:03;;;;;;;70.70;15.73;;;;;;;5.75;100.00;102707.34;5016228;28;20040;-77
2024/01/25 09:58:39;;;;;;;80.13;14.05;;;;;;;5.78;100.00;102712.34;5019934;28;20041;-78
2024/01/25 10:01:09;;;;;;;73.05;14.95;;;;;;;5.80;100.00;102719.09;4999235;28;20272;-77
2024/01/25 10:03:35;;;;;;;66.38;14.77;;;;;;;5.85;100.00;102714.50;5016553;28;20060;-77
2024/01/25 10:06:00;;;;;;;78.93;15.73;;;;;;;5.92;100.00;102703.91;5004198;28;20501;-77
2024/01/25 10:08:26;;;;;;;70.47;14.75;;;;;;;5.96;100.00;102702.88;4995952;28;20026;-77
2024/01/25 10:10:53;;;;;;;67.20;16.48;;;;;;;6.00;100.00;102699.22;5009339;28;20034;-77
2024/01/25 10:13:19;;;;;;;78.57;16.10;;;;;;;6.03;100.00;102699.06;5016405;28;20104;-77
2024/01/25 10:15:47;;;;;;;93.82;15.50;;;;;;;6.16;100.00;102705.25;5017619;28;20044;-78
2024/01/25 10:18:13;;;;;;;73.78;15.57;;;;;;;6.19;100.00;102717.94;5013272;28;20477;-78
2024/01/25 10:20:47;;;;;;;71.00;14.90;;;;;;;6.28;100.00;102716.66;5029870;28;20037;-77
2024/01/25 10:23:13;;;;;;;87.85;16.23;;;;;;;6.33;100.00;102711.22;5027898;28;20034;-77
2024/01/25 10:25:38;;;;;;;85.90;16.20;;;;;;;6.34;100.00;102705.19;4990888;28;20041;-77
2024/01/25 10:28:05;;;;;;;72.43;14.43;;;;;;;6.34;100.00;102708.56;4998669;28;20041;-77
2024/01/25 10:30:33;;;;;;;74.10;14.65;;;;;;;6.38;100.00;102697.19;5015581;28;21793;-77
2024/01/25 10:32:59;;;;;;;75.95;15.70;;;;;;;6.42;100.00;102698.72;5033646;28;20104;-77
2024/01/25 10:35:29;;;;;;;73.93;18.65;;;;;;;6.48;100.00;102688.97;5035867;28;20034;-77
2024/01/25 10:37:55;;;;;;;82.13;16.27;;;;;;;6.47;100.00;102692.47;5017493;28;20091;-77
2024/01/25 10:40:21;;;;;;;70.30;15.02;;;;;;;6.46;100.00;102693.38;5011625;28;20132;-77
2024/01/25 10:42:47;;;;;;;84.97;16.70;;;;;;;6.43;100.00;102686.66;5010551;28;20029;-77
2024/01/25 10:45:12;;;;;;;83.95;17.45;;;;;;;6.46;100.00;102681.34;5012596;28;20034;-77
2024/01/25 10:47:40;;;;;;;70.85;16.38;;;;;;;6.47;100.00;102680.41;5003327;28;20120;-78
2024/01/25 10:50:09;;;;;;;79.55;17.05;;;;;;;6.63;100.00;102676.09;5015292;28;20121;-78
2024/01/25 10:52:36;;;;;;;73.38;18.08;;;;;;;6.78;100.00;102678.72;5015990;28;20055;-78
2024/01/25 10:55:04;;;;;;;75.10;16.65;;;;;;;6.72;100.00;102671.34;5012186;28;20025;-78
2024/01/25 10:57:42;;;;;;;67.68;16.50;;;;;;;6.72;100.00;102663.59;5032876;28;20037;-78
2024/01/25 11:00:10;;;;;;;53.60;15.05;;;;;;;6.75;100.00;102660.84;5016441;28;20558;-78
2024/01/25 11:02:37;;;;;;;85.65;18.50;;;;;;;6.84;100.00;102652.59;4999745;28;20585;-78
2024/01/25 11:05:14;;;;;;;70.53;18.15;;;;;;;6.85;100.00;102649.09;5033555;28;20120;-78
2024/01/25 11:07:47;;;;;;;72.75;17.98;;;;;;;6.96;100.00;102633.84;5032806;28;20032;-78
2024/01/25 11:10:25;;;;;;;69.40;17.83;;;;;;;6.93;100.00;102638.34;5032888;28;20090;-78